sensor_id;sensor_type;location;lat;lon;timestamp;pressure;altitude;pressure_sealevel;temperature;humidity
53262;BME280;39658;51.090;-1.786;2024-01-25T00:00:35;102275.09;;;3.39;100.00
53262;BME280;39658;51.090;-1.786;2024-01-25T00:03:02;102270.81;;;3.33;100.00
53262;BME280;39658;51.090;-1.786;2024-01-25T00:05:28;102282.13;;;3.31;100.00
53262;BME280;39658;51.090;-1.786;2024-01-25T00:07:56;102281.16;;;3.42;100.00
53262;BME280;39658;51.090;-1.786;2024-01-25T00:10:23;102293.09;;;3.64;100.00
53262;BME280;39658;51.090;-1.786;2024-01-25T00:12:50;102311.88;;;3.92;100.00
53262;BME280;39658;51.090;-1.786;2024-01-25T00:15:17;102326.44;;;4.08;100.00
53262;BME280;39658;51.090;-1.786;2024-01-25T00:17:43;102354.91;;;4.27;100.00
53262;BME280;39658;51.090;-1.786;2024-01-25T00:20:11;102397.41;;;4.40;100.00
53262;BME280;39658;51.090;-1.786;2024-01-25T00:22:37;102439.00;;;4.52;100.00
53262;BME280;39658;51.090;-1.786;2024-01-25T00:25:06;102468.53;;;4.60;100.00
53262;BME280;39658;51.090;-1.786;2024-01-25T00:27:33;102485.84;;;4.66;100.00
53262;BME280;39658;51.090;-1.786;2024-01-25T00:30:00;102499.69;;;4.76;100.00
53262;BME280;39658;51.090;-1.786;2024-01-25T00:32:26;102503.81;;;4.91;100.00
53262;BME280;39658;51.090;-1.786;2024-01-25T00:34:54;102515.00;;;5.03;100.00
53262;BME280;39658;51.090;-1.786;2024-01-25T00:37:21;102513.16;;;5.10;100.00
53262;BME280;39658;51.090;-1.786;2024-01-25T00:39:48;102522.59;;;5.20;100.00
53262;BME280;39658;51.090;-1.786;2024-01-25T00:42:21;102522.44;;;5.30;100.00
53262;BME280;39658;51.090;-1.786;2024-01-25T00:44:49;102525.88;;;5.35;100.00
53262;BME280;39658;51.090;-1.786;2024-01-25T00:47:16;102517.91;;;5.41;100.00
53262;BME280;39658;51.090;-1.786;2024-01-25T00:49:44;102523.00;;;5.50;100.00
53262;BME280;39658;51.090;-1.786;2024-01-25T00:52:11;102514.22;;;5.53;100.00
53262;BME280;39658;51.090;-1.786;2024-01-25T00:54:39;102506.25;;;5.61;100.00
53262;BME280;39658;51.090;-1.786;2024-01-25T00:57:07;102493.19;;;5.59;100.00
53262;BME280;39658;51.090;-1.786;2024-01-25T00:59:36;102488.03;;;5.54;100.00
53262;BME280;39658;51.090;-1.786;2024-01-25T01:02:04;102486.34;;;5.52;100.00
53262;BME280;39658;51.090;-1.786;2024-01-25T01:04:32;102482.03;;;5.49;100.00
53262;BME280;39658;51.090;-1.786;2024-01-25T01:06:59;102471.59;;;5.48;100.00
53262;BME280;39658;51.090;-1.786;2024-01-25T01:09:26;102456.78;;;5.47;100.00
53262;BME280;39658;51.090;-1.786;2024-01-25T01:11:52;102412.31;;;5.45;100.00
53262;BME280;39658;51.090;-1.786;2024-01-25T01:14:19;102386.13;;;5.47;100.00
53262;BME280;39658;51.090;-1.786;2024-01-25T01:16:48;102375.56;;;5.53;100.00
53262;BME280;39658;51.090;-1.786;2024-01-25T01:19:15;102354.59;;;5.54;100.00
53262;BME280;39658;51.090;-1.786;2024-01-25T01:21:42;102319.72;;;5.55;100.00
53262;BME280;39658;51.090;-1.786;2024-01-25T01:24:10;102299.53;;;5.61;100.00
53262;BME280;39658;51.090;-1.786;2024-01-25T01:26:37;102275.13;;;5.60;100.00
53262;BME280;39658;51.090;-1.786;2024-01-25T01:29:04;102269.78;;;5.66;100.00
53262;BME280;39658;51.090;-1.786;2024-01-25T01:31:30;102251.38;;;5.71;100.00
53262;BME280;39658;51.090;-1.786;2024-01-25T01:33:59;102235.66;;;5.71;100.00
53262;BME280;39658;51.090;-1.786;2024-01-25T01:36:25;102214.53;;;5.80;100.00
53262;BME280;39658;51.090;-1.786;2024-01-25T01:38:52;102210.25;;;5.76;100.00
53262;BME280;39658;51.090;-1.786;2024-01-25T01:41:19;102197.09;;;5.79;100.00
53262;BME280;39658;51.090;-1.786;2024-01-25T01:43:45;102186.56;;;5.82;100.00
53262;BME280;39658;51.090;-1.786;2024-01-25T01:46:20;102183.06;;;5.83;100.00
53262;BME280;39658;51.090;-1.786;2024-01-25T01:48:51;102172.50;;;5.86;100.00
53262;BME280;39658;51.090;-1.786;2024-01-25T01:51:19;102168.91;;;5.92;100.00
53262;BME280;39658;51.090;-1.786;2024-01-25T01:53:46;102164.44;;;5.97;100.00
53262;BME280;39658;51.090;-1.786;2024-01-25T01:56:14;102167.78;;;6.04;100.00
53262;BME280;39658;51.090;-1.786;2024-01-25T01:58:41;102159.72;;;6.11;100.00
53262;BME280;39658;51.090;-1.786;2024-01-25T02:01:08;102147.38;;;6.17;100.00
53262;BME280;39658;51.090;-1.786;2024-01-25T02:03:35;102148.34;;;6.14;100.00
53262;BME280;39658;51.090;-1.786;2024-01-25T02:06:02;102144.94;;;6.09;100.00
53262;BME280;39658;51.090;-1.786;2024-01-25T02:08:30;102151.88;;;6.11;100.00
53262;BME280;39658;51.090;-1.786;2024-01-25T02:10:57;102137.97;;;6.09;100.00
53262;BME280;39658;51.090;-1.786;2024-01-25T02:13:23;102136.25;;;6.08;100.00
53262;BME280;39658;51.090;-1.786;2024-01-25T02:15:51;102139.63;;;6.12;100.00
53262;BME280;39658;51.090;-1.786;2024-01-25T02:18:18;102131.81;;;6.10;100.00
53262;BME280;39658;51.090;-1.786;2024-01-25T02:20:45;102128.31;;;6.11;100.00
53262;BME280;39658;51.090;-1.786;2024-01-25T02:23:13;102125.63;;;6.15;100.00
53262;BME280;39658;51.090;-1.786;2024-01-25T02:25:40;102123.75;;;6.18;100.00
53262;BME280;39658;51.090;-1.786;2024-01-25T02:28:06;102132.59;;;6.16;100.00
53262;BME280;39658;51.090;-1.786;2024-01-25T02:30:33;102132.63;;;6.14;100.00
53262;BME280;39658;51.090;-1.786;2024-01-25T02:33:00;102136.97;;;6.14;100.00
53262;BME280;39658;51.090;-1.786;2024-01-25T02:35:26;102141.31;;;6.15;100.00
53262;BME280;39658;51.090;-1.786;2024-01-25T02:37:53;102145.69;;;6.16;100.00
53262;BME280;39658;51.090;-1.786;2024-01-25T02:40:21;102145.63;;;6.17;100.00
53262;BME280;39658;51.090;-1.786;2024-01-25T02:42:48;102140.41;;;6.17;100.00
53262;BME280;39658;51.090;-1.786;2024-01-25T02:45:15;102138.53;;;6.22;100.00
53262;BME280;39658;51.090;-1.786;2024-01-25T02:47:42;102136.72;;;6.24;100.00
53262;BME280;39658;51.090;-1.786;2024-01-25T02:50:09;102139.22;;;6.29;100.00
53262;BME280;39658;51.090;-1.786;2024-01-25T02:52:36;102143.53;;;6.32;100.00
53262;BME280;39658;51.090;-1.786;2024-01-25T02:55:03;102147.06;;;6.29;100.00
53262;BME280;39658;51.090;-1.786;2024-01-25T02:57:31;102147.06;;;6.29;100.00
53262;BME280;39658;51.090;-1.786;2024-01-25T02:59:58;102153.06;;;6.34;100.00
53262;BME280;39658;51.090;-1.786;2024-01-25T03:02:25;102173.06;;;6.37;100.00
53262;BME280;39658;51.090;-1.786;2024-01-25T03:04:52;102178.25;;;6.40;100.00
53262;BME280;39658;51.090;-1.786;2024-01-25T03:07:19;102187.00;;;6.39;100.00
53262;BME280;39658;51.090;-1.786;2024-01-25T03:09:45;102205.19;;;6.45;100.00
53262;BME280;39658;51.090;-1.786;2024-01-25T03:12:12;102228.78;;;6.45;100.00
53262;BME280;39658;51.090;-1.786;2024-01-25T03:14:40;102248.00;;;6.44;100.00
53262;BME280;39658;51.090;-1.786;2024-01-25T03:17:07;102268.09;;;6.45;100.00
53262;BME280;39658;51.090;-1.786;2024-01-25T03:19:33;102307.25;;;6.51;100.00
53262;BME280;39658;51.090;-1.786;2024-01-25T03:22:00;102317.78;;;6.48;100.00
53262;BME280;39658;51.090;-1.786;2024-01-25T03:24:27;102329.16;;;6.47;100.00
53262;BME280;39658;51.090;-1.786;2024-01-25T03:26:53;102329.28;;;6.42;100.00
53262;BME280;39658;51.090;-1.786;2024-01-25T03:29:20;102332.63;;;6.47;100.00
53262;BME280;39658;51.090;-1.786;2024-01-25T03:31:48;102345.75;;;6.47;100.00
53262;BME280;39658;51.090;-1.786;2024-01-25T03:34:15;102357.09;;;6.48;100.00
53262;BME280;39658;51.090;-1.786;2024-01-25T03:36:42;102361.41;;;6.49;100.00
53262;BME280;39658;51.090;-1.786;2024-01-25T03:39:08;102374.31;;;6.58;100.00
53262;BME280;39658;51.090;-1.786;2024-01-25T03:41:36;102381.88;;;6.72;100.00
53262;BME280;39658;51.090;-1.786;2024-01-25T03:44:03;102403.50;;;6.80;100.00
53262;BME280;39658;51.090;-1.786;2024-01-25T03:46:30;102406.06;;;6.83;100.00
53262;BME280;39658;51.090;-1.786;2024-01-25T03:48:58;102412.09;;;6.89;100.00
53262;BME280;39658;51.090;-1.786;2024-01-25T03:51:25;102420.50;;;7.01;100.00
53262;BME280;39658;51.090;-1.786;2024-01-25T03:53:51;102425.69;;;7.05;100.00
53262;BME280;39658;51.090;-1.786;2024-01-25T03:56:20;102449.88;;;7.16;100.00
53262;BME280;39658;51.090;-1.786;2024-01-25T03:58:48;102462.78;;;7.25;100.00
53262;BME280;39658;51.090;-1.786;2024-01-25T04:01:15;102473.34;;;7.22;100.00
53262;BME280;39658;51.090;-1.786;2024-01-25T04:03:41;102483.69;;;7.28;100.00
53262;BME280;39658;51.090;-1.786;2024-01-25T04:06:09;102540.41;;;7.35;100.00
53262;BME280;39658;51.090;-1.786;2024-01-25T04:08:36;102548.19;;;7.39;100.00
53262;BME280;39658;51.090;-1.786;2024-01-25T04:11:03;102552.41;;;7.46;100.00
53262;BME280;39658;51.090;-1.786;2024-01-25T04:13:30;102552.34;;;7.49;100.00
53262;BME280;39658;51.090;-1.786;2024-01-25T04:15:56;102568.84;;;7.54;100.00
53262;BME280;39658;51.090;-1.786;2024-01-25T04:18:23;102578.31;;;7.60;100.00
53262;BME280;39658;51.090;-1.786;2024-01-25T04:20:50;102578.28;;;7.61;100.00
53262;BME280;39658;51.090;-1.786;2024-01-25T04:23:18;102573.16;;;7.55;100.00
53262;BME280;39658;51.090;-1.786;2024-01-25T04:25:45;102580.06;;;7.59;100.00
53262;BME280;39658;51.090;-1.786;2024-01-25T04:28:12;102588.72;;;7.63;100.00
53262;BME280;39658;51.090;-1.786;2024-01-25T04:30:39;102596.50;;;7.67;100.00
53262;BME280;39658;51.090;-1.786;2024-01-25T04:33:05;102607.06;;;7.64;100.00
53262;BME280;39658;51.090;-1.786;2024-01-25T04:35:32;102608.78;;;7.67;100.00
53262;BME280;39658;51.090;-1.786;2024-01-25T04:37:59;102608.78;;;7.67;100.00
53262;BME280;39658;51.090;-1.786;2024-01-25T04:40:27;102599.22;;;7.63;100.00
53262;BME280;39658;51.090;-1.786;2024-01-25T04:42:54;102624.56;;;7.65;100.00
53262;BME280;39658;51.090;-1.786;2024-01-25T04:45:21;102633.25;;;7.67;100.00
53262;BME280;39658;51.090;-1.786;2024-01-25T04:47:47;102638.56;;;7.64;100.00
53262;BME280;39658;51.090;-1.786;2024-01-25T04:50:14;102642.94;;;7.65;100.00
53262;BME280;39658;51.090;-1.786;2024-01-25T04:52:41;102648.16;;;7.67;100.00
53262;BME280;39658;51.090;-1.786;2024-01-25T04:55:08;102658.66;;;7.67;100.00
53262;BME280;39658;51.090;-1.786;2024-01-25T04:57:36;102659.59;;;7.64;100.00
53262;BME280;39658;51.090;-1.786;2024-01-25T05:00:04;102668.38;;;7.63;100.00
53262;BME280;39658;51.090;-1.786;2024-01-25T05:02:32;102670.00;;;7.67;100.00
53262;BME280;39658;51.090;-1.786;2024-01-25T05:04:58;102654.22;;;7.69;100.00
53262;BME280;39658;51.090;-1.786;2024-01-25T05:07:25;102658.63;;;7.68;100.00
53262;BME280;39658;51.090;-1.786;2024-01-25T05:09:52;102646.34;;;7.69;100.00
53262;BME280;39658;51.090;-1.786;2024-01-25T05:12:18;102664.00;;;7.62;100.00
53262;BME280;39658;51.090;-1.786;2024-01-25T05:14:47;102664.84;;;7.64;100.00
53262;BME280;39658;51.090;-1.786;2024-01-25T05:17:13;102678.81;;;7.66;100.00
53262;BME280;39658;51.090;-1.786;2024-01-25T05:19:40;102674.41;;;7.67;100.00
53262;BME280;39658;51.090;-1.786;2024-01-25T05:22:07;102669.09;;;7.70;100.00
53262;BME280;39658;51.090;-1.786;2024-01-25T05:24:34;102683.84;;;7.76;100.00
53262;BME280;39658;51.090;-1.786;2024-01-25T05:27:00;102679.53;;;7.73;100.00
53262;BME280;39658;51.090;-1.786;2024-01-25T05:29:27;102685.47;;;7.81;100.00
53262;BME280;39658;51.090;-1.786;2024-01-25T05:31:55;102692.59;;;7.76;100.00
53262;BME280;39658;51.090;-1.786;2024-01-25T05:34:24;102686.41;;;7.79;100.00
53262;BME280;39658;51.090;-1.786;2024-01-25T05:36:51;102697.66;;;7.84;100.00
53262;BME280;39658;51.090;-1.786;2024-01-25T05:39:18;102710.75;;;7.85;100.00
53262;BME280;39658;51.090;-1.786;2024-01-25T05:41:45;102723.03;;;7.85;100.00
53262;BME280;39658;51.090;-1.786;2024-01-25T05:44:12;102729.88;;;7.92;100.00
53262;BME280;39658;51.090;-1.786;2024-01-25T05:46:39;102733.53;;;7.85;100.00
53262;BME280;39658;51.090;-1.786;2024-01-25T05:49:07;102738.69;;;7.89;100.00
53262;BME280;39658;51.090;-1.786;2024-01-25T05:51:34;102744.81;;;7.90;100.00
53262;BME280;39658;51.090;-1.786;2024-01-25T05:54:01;102757.03;;;7.91;100.00
53262;BME280;39658;51.090;-1.786;2024-01-25T05:56:28;102773.66;;;7.91;100.00
53262;BME280;39658;51.090;-1.786;2024-01-25T05:58:54;102780.72;;;7.89;100.00
53262;BME280;39658;51.090;-1.786;2024-01-25T06:01:21;102790.38;;;7.87;100.00
53262;BME280;39658;51.090;-1.786;2024-01-25T06:03:48;102797.38;;;7.88;100.00
53262;BME280;39658;51.090;-1.786;2024-01-25T06:06:16;102811.25;;;7.94;100.00
53262;BME280;39658;51.090;-1.786;2024-01-25T06:08:43;102815.56;;;7.98;100.00
53262;BME280;39658;51.090;-1.786;2024-01-25T06:11:09;102832.00;;;8.06;100.00
53262;BME280;39658;51.090;-1.786;2024-01-25T06:13:36;102846.03;;;8.06;100.00
53262;BME280;39658;51.090;-1.786;2024-01-25T06:16:03;102838.00;;;8.13;100.00
53262;BME280;39658;51.090;-1.786;2024-01-25T06:18:30;102837.22;;;8.07;100.00
53262;BME280;39658;51.090;-1.786;2024-01-25T06:20:57;102833.78;;;8.05;100.00
53262;BME280;39658;51.090;-1.786;2024-01-25T06:23:25;102846.88;;;8.07;100.00
53262;BME280;39658;51.090;-1.786;2024-01-25T06:25:52;102861.59;;;8.16;100.00
53262;BME280;39658;51.090;-1.786;2024-01-25T06:28:19;102851.97;;;8.15;100.00
53262;BME280;39658;51.090;-1.786;2024-01-25T06:30:45;102846.66;;;8.18;100.00
53262;BME280;39658;51.090;-1.786;2024-01-25T06:33:12;102851.13;;;8.14;100.00
53262;BME280;39658;51.090;-1.786;2024-01-25T06:35:39;102851.94;;;8.16;100.00
53262;BME280;39658;51.090;-1.786;2024-01-25T06:38:06;102855.47;;;8.15;100.00
53262;BME280;39658;51.090;-1.786;2024-01-25T06:40:34;102835.31;;;8.16;100.00
53262;BME280;39658;51.090;-1.786;2024-01-25T06:43:01;102829.97;;;8.20;100.00
53262;BME280;39658;51.090;-1.786;2024-01-25T06:45:27;102833.44;;;8.21;100.00
53262;BME280;39658;51.090;-1.786;2024-01-25T06:47:54;102829.00;;;8.23;100.00
53262;BME280;39658;51.090;-1.786;2024-01-25T06:50:21;102845.75;;;8.19;100.00
53262;BME280;39658;51.090;-1.786;2024-01-25T06:52:47;102841.31;;;8.21;100.00
53262;BME280;39658;51.090;-1.786;2024-01-25T06:55:15;102863.22;;;8.21;100.00
53262;BME280;39658;51.090;-1.786;2024-01-25T06:57:43;102872.72;;;8.27;100.00
53262;BME280;39658;51.090;-1.786;2024-01-25T07:00:10;102862.25;;;8.25;100.00
53262;BME280;39658;51.090;-1.786;2024-01-25T07:02:39;102883.06;;;8.35;100.00
53262;BME280;39658;51.090;-1.786;2024-01-25T07:05:07;102877.88;;;8.32;100.00
53262;BME280;39658;51.090;-1.786;2024-01-25T07:07:33;102866.41;;;8.34;100.00
53262;BME280;39658;51.090;-1.786;2024-01-25T07:10:00;103025.03;;;8.35;100.00
53262;BME280;39658;51.090;-1.786;2024-01-25T07:12:27;103033.84;;;8.31;100.00
53262;BME280;39658;51.090;-1.786;2024-01-25T07:14:56;103038.19;;;8.33;100.00
53262;BME280;39658;51.090;-1.786;2024-01-25T07:17:23;103054.81;;;8.34;100.00
53262;BME280;39658;51.090;-1.786;2024-01-25T07:19:49;103061.00;;;8.31;100.00
53262;BME280;39658;51.090;-1.786;2024-01-25T07:22:16;103072.28;;;8.38;100.00
53262;BME280;39658;51.090;-1.786;2024-01-25T07:24:44;103092.41;;;8.37;100.00
53262;BME280;39658;51.090;-1.786;2024-01-25T07:27:10;103102.03;;;8.38;100.00
53262;BME280;39658;51.090;-1.786;2024-01-25T07:29:37;103101.25;;;8.35;100.00
53262;BME280;39658;51.090;-1.786;2024-01-25T07:32:06;103095.94;;;8.38;100.00
53262;BME280;39658;51.090;-1.786;2024-01-25T07:34:32;103076.66;;;8.36;100.00
53262;BME280;39658;51.090;-1.786;2024-01-25T07:36:59;103081.97;;;8.34;100.00
53262;BME280;39658;51.090;-1.786;2024-01-25T07:39:26;103099.34;;;8.44;100.00
53262;BME280;39658;51.090;-1.786;2024-01-25T07:41:53;103099.34;;;8.44;100.00
53262;BME280;39658;51.090;-1.786;2024-01-25T07:44:19;103113.50;;;8.34;100.00
53262;BME280;39658;51.090;-1.786;2024-01-25T07:46:46;103116.34;;;8.23;100.00
53262;BME280;39658;51.090;-1.786;2024-01-25T07:49:15;103119.88;;;8.22;100.00
53262;BME280;39658;51.090;-1.786;2024-01-25T07:51:42;103118.06;;;8.24;100.00
53262;BME280;39658;51.090;-1.786;2024-01-25T07:54:09;103122.34;;;8.30;100.00
53262;BME280;39658;51.090;-1.786;2024-01-25T07:56:36;103117.88;;;8.35;100.00
53262;BME280;39658;51.090;-1.786;2024-01-25T07:59:03;103109.59;;;8.58;100.00
53262;BME280;39658;51.090;-1.786;2024-01-25T08:01:30;103091.81;;;8.70;100.00
53262;BME280;39658;51.090;-1.786;2024-01-25T08:03:56;103099.63;;;8.74;100.00
53262;BME280;39658;51.090;-1.786;2024-01-25T08:06:29;103096.13;;;8.74;100.00
53262;BME280;39658;51.090;-1.786;2024-01-25T08:08:56;103101.44;;;8.72;100.00
53262;BME280;39658;51.090;-1.786;2024-01-25T08:11:23;103098.69;;;8.78;100.00
53262;BME280;39658;51.090;-1.786;2024-01-25T08:13:49;103073.16;;;8.82;100.00
53262;BME280;39658;51.090;-1.786;2024-01-25T08:16:16;103074.81;;;8.88;100.00
53262;BME280;39658;51.090;-1.786;2024-01-25T08:18:44;103082.72;;;8.86;100.00
53262;BME280;39658;51.090;-1.786;2024-01-25T08:21:12;103075.59;;;8.91;100.00
53262;BME280;39658;51.090;-1.786;2024-01-25T08:23:40;103078.13;;;8.96;100.00
53262;BME280;39658;51.090;-1.786;2024-01-25T08:26:07;103077.38;;;8.91;100.00
53262;BME280;39658;51.090;-1.786;2024-01-25T08:28:35;103085.09;;;8.98;100.00
53262;BME280;39658;51.090;-1.786;2024-01-25T08:31:01;103081.63;;;8.98;100.00
53262;BME280;39658;51.090;-1.786;2024-01-25T08:33:28;103088.72;;;8.93;100.00
53262;BME280;39658;51.090;-1.786;2024-01-25T08:35:55;103097.53;;;8.92;100.00
53262;BME280;39658;51.090;-1.786;2024-01-25T08:38:22;103099.19;;;8.96;100.00
53262;BME280;39658;51.090;-1.786;2024-01-25T08:40:50;103101.81;;;8.96;100.00
53262;BME280;39658;51.090;-1.786;2024-01-25T08:43:17;103114.94;;;8.97;100.00
53262;BME280;39658;51.090;-1.786;2024-01-25T08:45:44;103118.47;;;8.98;100.00
53262;BME280;39658;51.090;-1.786;2024-01-25T08:48:10;103135.88;;;9.04;100.00
53262;BME280;39658;51.090;-1.786;2024-01-25T08:50:38;103146.41;;;9.02;100.00
53262;BME280;39658;51.090;-1.786;2024-01-25T08:53:05;103156.84;;;9.07;100.00
53262;BME280;39658;51.090;-1.786;2024-01-25T08:55:32;103168.16;;;9.10;100.00
53262;BME280;39658;51.090;-1.786;2024-01-25T08:58:00;103187.44;;;9.12;100.00
53262;BME280;39658;51.090;-1.786;2024-01-25T09:00:27;103188.31;;;9.13;100.00
53262;BME280;39658;51.090;-1.786;2024-01-25T09:02:53;103196.22;;;9.11;100.00
53262;BME280;39658;51.090;-1.786;2024-01-25T09:05:20;103207.56;;;9.15;100.00
53262;BME280;39658;51.090;-1.786;2024-01-25T09:07:47;103218.91;;;9.19;100.00
53262;BME280;39658;51.090;-1.786;2024-01-25T09:10:16;103227.63;;;9.21;100.00
53262;BME280;39658;51.090;-1.786;2024-01-25T09:12:42;103231.03;;;9.26;100.00
53262;BME280;39658;51.090;-1.786;2024-01-25T09:15:11;103238.00;;;9.28;100.00
53262;BME280;39658;51.090;-1.786;2024-01-25T09:17:37;103260.75;;;9.32;100.00
53262;BME280;39658;51.090;-1.786;2024-01-25T09:20:06;103251.06;;;9.34;100.00
53262;BME280;39658;51.090;-1.786;2024-01-25T09:22:33;103220.13;;;9.44;100.00
53262;BME280;39658;51.090;-1.786;2024-01-25T09:25:00;103195.47;;;9.48;100.00
53262;BME280;39658;51.090;-1.786;2024-01-25T09:27:26;103169.22;;;9.44;100.00
53262;BME280;39658;51.090;-1.786;2024-01-25T09:29:53;103136.72;;;9.46;100.00
53262;BME280;39658;51.090;-1.786;2024-01-25T09:32:22;103094.50;;;9.49;100.00
53262;BME280;39658;51.090;-1.786;2024-01-25T09:34:48;103063.53;;;9.59;100.00
53262;BME280;39658;51.090;-1.786;2024-01-25T09:37:15;103027.38;;;9.66;100.00
53262;BME280;39658;51.090;-1.786;2024-01-25T09:39:42;102998.28;;;9.70;100.00
53262;BME280;39658;51.090;-1.786;2024-01-25T09:42:10;102939.47;;;9.70;100.00
53262;BME280;39658;51.090;-1.786;2024-01-25T09:44:38;102901.44;;;9.79;100.00
53262;BME280;39658;51.090;-1.786;2024-01-25T09:47:06;102856.59;;;9.82;100.00
53262;BME280;39658;51.090;-1.786;2024-01-25T09:49:35;102809.78;;;9.92;100.00
53262;BME280;39658;51.090;-1.786;2024-01-25T09:52:02;102777.59;;;10.10;100.00
53262;BME280;39658;51.090;-1.786;2024-01-25T09:54:31;102735.03;;;10.22;100.00
53262;BME280;39658;51.090;-1.786;2024-01-25T09:57:01;102679.13;;;10.39;100.00
53262;BME280;39658;51.090;-1.786;2024-01-25T09:59:30;102603.63;;;10.37;100.00
53262;BME280;39658;51.090;-1.786;2024-01-25T10:01:57;102513.97;;;10.37;100.00
53262;BME280;39658;51.090;-1.786;2024-01-25T10:04:25;102424.94;;;10.44;100.00
53262;BME280;39658;51.090;-1.786;2024-01-25T10:06:56;102349.72;;;10.57;100.00
53262;BME280;39658;51.090;-1.786;2024-01-25T10:09:23;102283.53;;;10.63;100.00
53262;BME280;39658;51.090;-1.786;2024-01-25T10:11:50;102197.34;;;10.64;100.00
53262;BME280;39658;51.090;-1.786;2024-01-25T10:14:16;102127.97;;;10.62;100.00
53262;BME280;39658;51.090;-1.786;2024-01-25T10:16:44;102066.22;;;10.66;100.00
53262;BME280;39658;51.090;-1.786;2024-01-25T10:19:11;102021.31;;;10.67;100.00
53262;BME280;39658;51.090;-1.786;2024-01-25T10:21:41;101965.44;;;10.78;100.00
53262;BME280;39658;51.090;-1.786;2024-01-25T10:24:09;101917.59;;;10.86;100.00
53262;BME280;39658;51.090;-1.786;2024-01-25T10:26:36;101863.91;;;10.87;100.00
53262;BME280;39658;51.090;-1.786;2024-01-25T10:29:03;101830.38;;;10.89;100.00
53262;BME280;39658;51.090;-1.786;2024-01-25T10:31:31;101797.78;;;10.90;100.00
53262;BME280;39658;51.090;-1.786;2024-01-25T10:33:59;101763.25;;;10.94;100.00
53262;BME280;39658;51.090;-1.786;2024-01-25T10:36:27;101737.31;;;11.03;100.00
53262;BME280;39658;51.090;-1.786;2024-01-25T10:38:54;101701.25;;;11.03;100.00
53262;BME280;39658;51.090;-1.786;2024-01-25T10:41:24;101706.06;;;11.28;100.00
53262;BME280;39658;51.090;-1.786;2024-01-25T10:43:51;101681.31;;;11.63;100.00
53262;BME280;39658;51.090;-1.786;2024-01-25T10:46:18;101672.34;;;12.29;100.00
53262;BME280;39658;51.090;-1.786;2024-01-25T10:48:46;101656.88;;;12.82;100.00
53262;BME280;39658;51.090;-1.786;2024-01-25T10:51:13;101670.78;;;13.29;100.00
53262;BME280;39658;51.090;-1.786;2024-01-25T10:53:44;101682.47;;;12.82;100.00
53262;BME280;39658;51.090;-1.786;2024-01-25T10:56:12;101698.16;;;12.70;100.00
53262;BME280;39658;51.090;-1.786;2024-01-25T10:58:42;101714.38;;;12.64;100.00
53262;BME280;39658;51.090;-1.786;2024-01-25T11:01:10;101725.06;;;12.32;100.00
53262;BME280;39658;51.090;-1.786;2024-01-25T11:03:39;101729.41;;;12.17;100.00
53262;BME280;39658;51.090;-1.786;2024-01-25T11:06:06;101740.84;;;12.18;100.00
53262;BME280;39658;51.090;-1.786;2024-01-25T11:08:34;101748.50;;;12.69;100.00
53262;BME280;39658;51.090;-1.786;2024-01-25T11:11:05;101765.88;;;13.62;100.00
53262;BME280;39658;51.090;-1.786;2024-01-25T11:13:33;101782.44;;;13.66;100.00
53262;BME280;39658;51.090;-1.786;2024-01-25T11:16:12;101797.38;;;13.53;100.00
53262;BME280;39658;51.090;-1.786;2024-01-25T11:18:48;101800.00;;;13.24;100.00
53262;BME280;39658;51.090;-1.786;2024-01-25T11:21:22;101828.88;;;14.15;100.00
53262;BME280;39658;51.090;-1.786;2024-01-25T11:23:59;101863.56;;;13.97;100.00
53262;BME280;39658;51.090;-1.786;2024-01-25T11:26:25;101873.84;;;13.59;100.00
53262;BME280;39658;51.090;-1.786;2024-01-25T11:28:52;101856.22;;;13.43;100.00
53262;BME280;39658;51.090;-1.786;2024-01-25T11:31:21;101852.78;;;13.86;100.00
53262;BME280;39658;51.090;-1.786;2024-01-25T11:33:48;101864.03;;;13.75;100.00
53262;BME280;39658;51.090;-1.786;2024-01-25T11:36:15;101869.97;;;13.93;100.00
53262;BME280;39658;51.090;-1.786;2024-01-25T11:38:42;101875.00;;;14.27;100.00
53262;BME280;39658;51.090;-1.786;2024-01-25T11:41:09;101884.16;;;14.92;100.00
53262;BME280;39658;51.090;-1.786;2024-01-25T11:43:36;101890.09;;;14.95;100.00
53262;BME280;39658;51.090;-1.786;2024-01-25T11:46:03;101906.50;;;14.60;100.00
53262;BME280;39658;51.090;-1.786;2024-01-25T11:48:31;101899.44;;;13.74;100.00
53262;BME280;39658;51.090;-1.786;2024-01-25T11:50:58;101882.75;;;13.58;100.00
53262;BME280;39658;51.090;-1.786;2024-01-25T11:53:25;101888.63;;;13.49;100.00
53262;BME280;39658;51.090;-1.786;2024-01-25T11:55:53;101876.75;;;13.40;100.00
53262;BME280;39658;51.090;-1.786;2024-01-25T11:58:22;101863.19;;;13.30;100.00
53262;BME280;39658;51.090;-1.786;2024-01-25T12:00:49;101874.25;;;14.10;100.00
53262;BME280;39658;51.090;-1.786;2024-01-25T12:03:16;101890.06;;;13.97;100.00
53262;BME280;39658;51.090;-1.786;2024-01-25T12:05:45;101878.47;;;13.25;100.00
53262;BME280;39658;51.090;-1.786;2024-01-25T12:08:13;101863.75;;;13.05;100.00
53262;BME280;39658;51.090;-1.786;2024-01-25T12:10:40;101844.13;;;12.63;100.00
53262;BME280;39658;51.090;-1.786;2024-01-25T12:13:07;101832.28;;;12.54;100.00
53262;BME280;39658;51.090;-1.786;2024-01-25T12:15:35;101820.81;;;12.69;100.00
53262;BME280;39658;51.090;-1.786;2024-01-25T12:18:02;101816.50;;;12.05;100.00
53262;BME280;39658;51.090;-1.786;2024-01-25T12:20:31;101797.22;;;12.02;100.00
53262;BME280;39658;51.090;-1.786;2024-01-25T12:22:59;101803.09;;;12.08;100.00
53262;BME280;39658;51.090;-1.786;2024-01-25T12:25:26;101799.25;;;11.97;100.00
53262;BME280;39658;51.090;-1.786;2024-01-25T12:27:53;101803.16;;;11.90;100.00
53262;BME280;39658;51.090;-1.786;2024-01-25T12:30:20;101787.47;;;11.87;100.00
53262;BME280;39658;51.090;-1.786;2024-01-25T12:32:48;101792.38;;;11.95;100.00
53262;BME280;39658;51.090;-1.786;2024-01-25T12:35:15;101784.69;;;11.73;100.00
53262;BME280;39658;51.090;-1.786;2024-01-25T12:37:42;101773.38;;;11.71;100.00